createdAt,value
2023-04-17T00:00:32.859Z,100503.28
2023-04-17T00:03:02.032Z,100504.31
2023-04-17T00:05:31.921Z,100505.31
2023-04-17T00:08:00.938Z,100504.75
2023-04-17T00:10:30.679Z,100507.81
2023-04-17T00:12:59.115Z,100509.66
2023-04-17T00:15:27.731Z,100503.56
2023-04-17T00:17:56.103Z,100491.31
2023-04-17T00:20:24.490Z,100496.19
2023-04-17T00:22:52.826Z,100488.47
2023-04-17T00:25:21.190Z,100487.84
2023-04-17T00:27:51.454Z,100498.84
2023-04-17T00:30:20.047Z,100490.88
2023-04-17T00:32:48.466Z,100491.91
2023-04-17T00:35:17.092Z,100486.63
2023-04-17T00:37:45.463Z,100492.50
2023-04-17T00:40:14.575Z,100496.78
2023-04-17T00:42:43.150Z,100494.94
2023-04-17T00:45:13.174Z,100492.06
2023-04-17T00:47:41.755Z,100501.06
2023-04-17T00:50:11.466Z,100496.78
2023-04-17T00:52:39.890Z,100493.09
2023-04-17T00:55:09.643Z,100488.84
2023-04-17T00:57:38.497Z,100489.66
2023-04-17T01:00:09.627Z,100494.16
2023-04-17T01:02:39.697Z,100482.94
2023-04-17T01:05:09.236Z,100480.28
2023-04-17T01:07:38.599Z,100486.63
2023-04-17T01:10:08.757Z,100477.06
2023-04-17T01:12:37.420Z,100484.41
2023-04-17T01:15:07.031Z,100476.69
2023-04-17T01:17:35.556Z,100472.41
2023-04-17T01:20:07.563Z,100482.19
2023-04-17T01:22:35.923Z,100475.03
2023-04-17T01:25:06.890Z,100475.28
2023-04-17T01:27:37.932Z,100476.31
2023-04-17T01:30:07.903Z,100479.75
2023-04-17T01:32:43.530Z,100485.06
2023-04-17T01:35:12.114Z,100488.75
2023-04-17T01:37:40.683Z,100480.81
2023-04-17T01:40:12.011Z,100475.69
2023-04-17T01:42:40.703Z,100481.81
2023-04-17T01:45:10.631Z,100488.13
2023-04-17T01:47:38.894Z,100493.22
2023-04-17T01:50:09.843Z,100491.41
2023-04-17T01:52:39.800Z,100488.75
2023-04-17T01:55:10.871Z,100488.94
2023-04-17T01:57:39.207Z,100485.72
2023-04-17T02:00:11.088Z,100487.09
2023-04-17T02:02:44.493Z,100487.34
2023-04-17T02:05:12.948Z,100500.56
2023-04-17T02:07:41.260Z,100487.53
2023-04-17T02:10:11.772Z,100495.72
2023-04-17T02:12:40.117Z,100491.44
2023-04-17T02:15:10.083Z,100494.09
2023-04-17T02:17:38.464Z,100490.66
2023-04-17T02:20:09.380Z,100489.81
2023-04-17T02:22:37.681Z,100486.59
2023-04-17T02:25:06.740Z,100484.75
2023-04-17T02:27:36.461Z,100491.88
2023-04-17T02:30:05.757Z,100490.25
2023-04-17T02:32:34.212Z,100497.16
2023-04-17T02:35:03.370Z,100491.28
2023-04-17T02:37:33.109Z,100491.66
2023-04-17T02:40:01.927Z,100476.59
2023-04-17T02:42:30.341Z,100483.72
2023-04-17T02:45:00.385Z,100483.94
2023-04-17T02:47:28.825Z,100481.72
2023-04-17T02:50:00.222Z,100474.59
2023-04-17T02:52:29.451Z,100476.44
2023-04-17T02:54:57.834Z,100487.03
2023-04-17T02:57:27.114Z,100484.38
2023-04-17T02:59:55.487Z,100489.91
2023-04-17T03:02:26.568Z,100490.09
2023-04-17T03:04:55.106Z,100486.63
2023-04-17T03:07:24.278Z,100486.88
2023-04-17T03:09:53.624Z,100483.63
2023-04-17T03:12:21.969Z,100482.81
2023-04-17T03:14:50.580Z,100489.13
2023-04-17T03:17:20.400Z,100488.53
2023-04-17T03:19:50.941Z,100489.78
2023-04-17T03:22:19.732Z,100494.25
2023-04-17T03:24:49.658Z,100489.19
2023-04-17T03:27:24.204Z,100490.41
2023-04-17T03:29:56.607Z,100493.47
2023-04-17T03:32:27.107Z,100494.53
2023-04-17T03:34:56.845Z,100494.75
2023-04-17T03:37:25.256Z,100493.09
2023-04-17T03:39:53.633Z,100496.78
2023-04-17T03:42:21.965Z,100497.00
2023-04-17T03:44:50.331Z,100493.75
2023-04-17T03:47:19.438Z,100488.69
2023-04-17T03:49:47.879Z,100497.84
2023-04-17T03:52:17.652Z,100492.56
2023-04-17T03:54:49.018Z,100487.69
2023-04-17T03:57:17.460Z,100495.44
2023-04-17T03:59:46.003Z,100497.47
2023-04-17T04:02:14.636Z,100509.66
2023-04-17T04:04:43.195Z,100505.19
2023-04-17T04:07:17.332Z,100498.50
2023-04-17T04:09:46.604Z,100499.31
2023-04-17T04:12:15.604Z,100499.94
2023-04-17T04:14:46.564Z,100500.53
2023-04-17T04:17:16.649Z,100492.59
2023-04-17T04:19:46.132Z,100504.00
2023-04-17T04:22:14.681Z,100506.63
2023-04-17T04:24:53.667Z,100510.31
2023-04-17T04:27:27.750Z,100512.56
2023-04-17T04:29:58.953Z,100513.19
2023-04-17T04:32:32.152Z,100514.41
2023-04-17T04:35:02.009Z,100516.03
2023-04-17T04:37:31.735Z,100513.38
2023-04-17T04:40:10.946Z,100513.38
2023-04-17T04:42:43.223Z,100522.13
2023-04-17T04:45:16.063Z,100517.06
2023-04-17T04:47:45.736Z,100512.56
2023-04-17T04:50:14.228Z,100509.53
2023-04-17T04:52:42.582Z,100521.53
2023-04-17T04:55:24.736Z,100528.69
2023-04-17T04:57:55.990Z,100513.41
2023-04-17T05:00:26.433Z,100514.25
2023-04-17T05:02:58.597Z,100532.13
2023-04-17T05:05:28.123Z,100530.72
2023-04-17T05:07:57.334Z,100526.03
2023-04-17T05:10:32.410Z,100533.16
2023-04-17T05:13:03.414Z,100531.31
2023-04-17T05:15:31.827Z,100533.16
2023-04-17T05:18:00.512Z,100527.25
2023-04-17T05:20:30.904Z,100527.66
2023-04-17T05:23:00.252Z,100537.41
2023-04-17T05:25:28.917Z,100542.50
2023-04-17T05:28:00.541Z,100536.63
2023-04-17T05:30:29.381Z,100531.94
2023-04-17T05:33:09.675Z,100546.59
2023-04-17T05:35:46.600Z,100544.97
2023-04-17T05:38:15.556Z,100532.97
2023-04-17T05:40:44.032Z,100548.41
2023-04-17T05:43:14.168Z,100548.03
2023-04-17T05:45:42.918Z,100552.28
2023-04-17T05:48:12.034Z,100556.34
2023-04-17T05:50:40.609Z,100549.66
2023-04-17T05:53:09.961Z,100551.28
2023-04-17T05:55:46.084Z,100551.88
2023-04-17T05:58:23.526Z,100548.41
2023-04-17T06:00:56.103Z,100547.63
2023-04-17T06:03:26.160Z,100535.19
2023-04-17T06:06:07.825Z,100543.53
2023-04-17T06:08:36.236Z,100538.66
2023-04-17T06:11:06.514Z,100546.38
2023-04-17T06:13:36.947Z,100534.38
2023-04-17T06:16:06.680Z,100537.03
2023-04-17T06:18:35.047Z,100540.66
2023-04-17T06:21:03.797Z,100536.63
2023-04-17T06:23:32.195Z,100545.75
2023-04-17T06:26:00.615Z,100540.22
2023-04-17T06:28:29.003Z,100537.81
2023-04-17T06:30:59.796Z,100542.22
2023-04-17T06:33:28.199Z,100541.41
2023-04-17T06:35:57.560Z,100547.91
2023-04-17T06:38:33.746Z,100543.00
2023-04-17T06:41:02.898Z,100544.22
2023-04-17T06:43:31.602Z,100553.78
2023-04-17T06:46:09.049Z,100550.50
2023-04-17T06:48:37.449Z,100552.72
2023-04-17T06:51:06.246Z,100547.19
2023-04-17T06:53:34.640Z,100547.38
2023-04-17T06:56:03.019Z,100547.78
2023-04-17T06:58:31.415Z,100558.75
2023-04-17T07:00:59.791Z,100553.03
2023-04-17T07:03:29.624Z,100554.63
2023-04-17T07:05:58.102Z,100557.28
2023-04-17T07:08:26.561Z,100552.78
2023-04-17T07:10:55.187Z,100561.53
2023-04-17T07:13:23.555Z,100562.78
2023-04-17T07:15:54.828Z,100569.47
2023-04-17T07:18:23.456Z,100564.56
2023-04-17T07:20:53.208Z,100557.22
2023-04-17T07:23:21.526Z,100565.09
2023-04-17T07:25:50.233Z,100553.50
2023-04-17T07:28:18.737Z,100571.16
2023-04-17T07:30:47.428Z,100568.31
2023-04-17T07:33:15.760Z,100570.31
2023-04-17T07:35:44.891Z,100577.03
2023-04-17T07:38:14.680Z,100566.44
2023-04-17T07:40:43.097Z,100568.19
2023-04-17T07:43:11.446Z,100576.75
2023-04-17T07:45:45.751Z,100579.53
2023-04-17T07:48:14.163Z,100581.19
2023-04-17T07:50:42.618Z,100584.22
2023-04-17T07:53:11.335Z,100583.41
2023-04-17T07:55:41.085Z,100582.38
2023-04-17T07:58:11.408Z,100586.63
2023-04-17T08:00:39.959Z,100591.94
2023-04-17T08:03:08.575Z,100596.00
2023-04-17T08:05:37.122Z,100596.38
2023-04-17T08:08:06.310Z,100583.94
2023-04-17T08:10:34.810Z,100584.50
2023-04-17T08:13:04.697Z,100581.06
2023-04-17T08:15:33.257Z,100597.72
2023-04-17T08:18:01.970Z,100585.25
2023-04-17T08:20:30.431Z,100593.97
2023-04-17T08:22:58.792Z,100606.00
2023-04-17T08:25:27.348Z,100601.06
2023-04-17T08:27:55.918Z,100603.50
2023-04-17T08:30:25.623Z,100608.97
2023-04-17T08:32:55.613Z,100608.53
2023-04-17T08:35:24.403Z,100610.94
2023-04-17T08:37:52.750Z,100612.38
2023-04-17T08:40:23.424Z,100601.31
2023-04-17T08:42:53.543Z,100603.97
2023-04-17T08:45:25.240Z,100610.44
2023-04-17T08:47:53.701Z,100611.03
2023-04-17T08:50:23.558Z,100616.50
2023-04-17T08:52:53.136Z,100617.06
2023-04-17T08:55:24.988Z,100605.22
2023-04-17T08:57:58.766Z,100614.63
2023-04-17T09:00:31.190Z,100614.19
2023-04-17T09:03:01.737Z,100618.22
2023-04-17T09:05:33.528Z,100609.03
2023-04-17T09:08:15.043Z,100614.31
2023-04-17T09:10:45.715Z,100618.97
2023-04-17T09:13:18.095Z,100634.88
2023-04-17T09:16:05.114Z,100617.34
2023-04-17T09:18:35.550Z,100620.00
2023-04-17T09:21:05.664Z,100612.28
2023-04-17T09:23:49.358Z,100621.84
2023-04-17T09:26:20.037Z,100625.06
2023-04-17T09:29:09.268Z,100624.06
2023-04-17T09:31:42.202Z,100621.19
2023-04-17T09:34:13.225Z,100619.19
2023-04-17T09:36:43.288Z,100633.22
2023-04-17T09:39:20.435Z,100634.81
2023-04-17T09:41:49.227Z,100641.75
2023-04-17T09:44:28.062Z,100640.38
2023-04-17T09:46:58.965Z,100619.94
2023-04-17T09:49:40.529Z,100640.72
2023-04-17T09:52:09.011Z,100634.97
2023-04-17T09:54:38.509Z,100634.50
2023-04-17T09:57:09.504Z,100637.41
2023-04-17T09:59:41.257Z,100621.13
2023-04-17T10:02:12.557Z,100637.41
2023-04-17T10:04:42.508Z,100629.44
2023-04-17T10:07:12.633Z,100640.06
2023-04-17T10:09:42.838Z,100628.63
2023-04-17T10:12:18.048Z,100625.97
2023-04-17T10:14:49.457Z,100643.53
2023-04-17T10:17:28.528Z,100629.69
2023-04-17T10:19:57.003Z,100640.06
2023-04-17T10:22:34.088Z,100628.63
2023-04-17T10:25:24.964Z,100632.09
2023-04-17T10:27:59.159Z,100632.69
2023-04-17T10:30:52.349Z,100626.78
2023-04-17T10:33:27.295Z,100628.19
2023-04-17T10:35:55.997Z,100621.84
2023-04-17T10:38:36.771Z,100625.53
2023-04-17T10:41:09.386Z,100617.34
2023-04-17T10:43:42.626Z,100616.09
2023-04-17T10:46:13.319Z,100615.66
2023-04-17T10:48:52.249Z,100617.63
2023-04-17T10:51:44.923Z,100618.22
2023-04-17T10:54:15.572Z,100615.34
2023-04-17T10:56:48.158Z,100610.16
2023-04-17T10:59:17.541Z,100608.91
2023-04-17T11:02:04.271Z,100608.13
2023-04-17T11:04:34.886Z,100605.59
2023-04-17T11:07:03.401Z,100602.50
2023-04-17T11:09:31.819Z,100600.00
2023-04-17T11:12:02.689Z,100580.47
2023-04-17T11:14:31.544Z,100590.22
2023-04-17T11:16:59.955Z,100578.69
2023-04-17T11:19:28.430Z,100581.47
2023-04-17T11:21:58.793Z,100586.34
2023-04-17T11:24:29.598Z,100588.75
2023-04-17T11:27:00.978Z,100585.88
2023-04-17T11:29:29.642Z,100580.56
2023-04-17T11:32:00.160Z,100577.66
2023-04-17T11:34:28.663Z,100557.91
2023-04-17T11:37:00.261Z,100581.94
2023-04-17T11:39:31.277Z,100587.25
2023-04-17T11:41:59.705Z,100584.84
2023-04-17T11:44:29.711Z,100582.41
2023-04-17T11:46:59.632Z,100590.16
2023-04-17T11:49:29.518Z,100598.13
2023-04-17T11:52:02.459Z,100584.59
2023-04-17T11:54:32.845Z,100597.22
2023-04-17T11:57:02.349Z,100597.59
2023-04-17T11:59:35.322Z,100605.94
2023-04-17T12:02:04.572Z,100603.03
2023-04-17T12:04:34.989Z,100598.09
2023-04-17T12:07:06.919Z,100596.03
2023-04-17T12:09:36.560Z,100592.31
2023-04-17T12:12:08.108Z,100593.13
2023-04-17T12:14:37.022Z,100595.78
2023-04-17T12:17:05.391Z,100592.88
2023-04-17T12:19:33.824Z,100590.81
2023-04-17T12:22:02.134Z,100601.00
2023-04-17T12:24:32.097Z,100597.53
2023-04-17T12:27:01.873Z,100589.78
2023-04-17T12:29:42.921Z,100606.31
2023-04-17T12:32:13.234Z,100591.88
2023-04-17T12:34:42.057Z,100585.16
2023-04-17T12:37:10.421Z,100587.00
2023-04-17T12:39:40.198Z,100587.22
2023-04-17T12:42:08.513Z,100590.13
2023-04-17T12:44:36.824Z,100586.06
2023-04-17T12:47:05.417Z,100579.38
2023-04-17T12:49:33.744Z,100578.88
2023-04-17T12:52:03.676Z,100577.06
2023-04-17T12:54:33.004Z,100574.16
2023-04-17T12:57:03.382Z,100572.31
2023-04-17T12:59:31.842Z,100562.50
2023-04-17T13:02:00.459Z,100561.47
2023-04-17T13:04:29.205Z,100564.69
2023-04-17T13:06:57.872Z,100565.50
2023-04-17T13:09:26.281Z,100564.47
2023-04-17T13:11:54.599Z,100564.25
2023-04-17T13:14:24.446Z,100562.97
2023-04-17T13:16:53.901Z,100550.94
2023-04-17T13:19:22.311Z,100557.22
2023-04-17T13:21:51.841Z,100552.81
2023-04-17T13:24:20.450Z,100553.75
2023-04-17T13:26:48.865Z,100550.41
2023-04-17T13:29:19.268Z,100545.63
2023-04-17T13:31:49.638Z,100547.63
2023-04-17T13:34:18.257Z,100546.34
2023-04-17T13:36:46.644Z,100551.19
2023-04-17T13:39:15.366Z,100535.25
2023-04-17T13:41:43.746Z,100542.06
2023-04-17T13:44:12.490Z,100537.09
2023-04-17T13:46:41.662Z,100546.47
2023-04-17T13:49:11.881Z,100540.09
2023-04-17T13:51:40.442Z,100537.22
2023-04-17T13:54:10.260Z,100543.91
2023-04-17T13:56:38.689Z,100537.31
2023-04-17T13:59:07.831Z,100543.22
2023-04-17T14:01:36.317Z,100538.72
2023-04-17T14:04:05.199Z,100543.78
2023-04-17T14:06:35.637Z,100528.41
2023-04-17T14:09:05.711Z,100537.78
2023-04-17T14:11:34.110Z,100529.31
2023-04-17T14:14:05.718Z,100543.91
2023-04-17T14:16:34.335Z,100541.00
2023-04-17T14:19:12.697Z,100547.47
2023-04-17T14:21:44.347Z,100553.38
2023-04-17T14:24:14.620Z,100553.59
2023-04-17T14:26:43.073Z,100552.78
2023-04-17T14:29:15.484Z,100540.28
2023-04-17T14:31:44.023Z,100544.25
2023-04-17T14:34:12.410Z,100549.31
2023-04-17T14:36:41.967Z,100536.03
2023-04-17T14:39:15.310Z,100542.16
2023-04-17T14:42:17.173Z,100545.88
2023-04-17T14:44:47.092Z,100539.50
2023-04-17T14:47:17.492Z,100534.97
2023-04-17T14:49:48.835Z,100538.22
2023-04-17T14:52:17.361Z,100535.56
2023-04-17T14:54:47.092Z,100544.25
2023-04-17T14:57:15.487Z,100529.91
2023-04-17T14:59:44.427Z,100522.97
2023-04-17T15:02:15.753Z,100530.16
2023-04-17T15:04:45.390Z,100537.28
2023-04-17T15:07:13.966Z,100544.00
2023-04-17T15:09:42.345Z,100530.50
2023-04-17T15:12:12.228Z,100547.94
2023-04-17T15:14:40.614Z,100532.31
2023-04-17T15:17:09.078Z,100540.53
2023-04-17T15:19:37.466Z,100533.38
2023-04-17T15:22:05.984Z,100526.78
2023-04-17T15:24:34.369Z,100531.28
2023-04-17T15:27:03.202Z,100528.28
2023-04-17T15:29:32.937Z,100527.00
2023-04-17T15:32:02.656Z,100513.94
2023-04-17T15:34:31.103Z,100529.56
2023-04-17T15:36:59.447Z,100534.41
2023-04-17T15:39:27.865Z,100526.66
2023-04-17T15:41:59.141Z,100527.94
2023-04-17T15:44:27.479Z,100525.97
2023-04-17T15:46:57.269Z,100528.97
2023-04-17T15:49:26.061Z,100538.25
2023-04-17T15:51:54.767Z,100533.28
2023-04-17T15:54:23.188Z,100537.53
2023-04-17T15:56:51.598Z,100534.88
2023-04-17T15:59:19.960Z,100554.09
2023-04-17T16:01:48.808Z,100553.50
2023-04-17T16:04:19.450Z,100556.75
2023-04-17T16:06:48.051Z,100551.31
2023-04-17T16:09:19.861Z,100543.22
2023-04-17T16:11:48.723Z,100563.56
2023-04-17T16:14:17.089Z,100543.56
2023-04-17T16:16:45.591Z,100547.72
2023-04-17T16:19:14.384Z,100536.75
2023-04-17T16:21:44.374Z,100545.56
2023-04-17T16:24:12.837Z,100536.75
2023-04-17T16:26:42.737Z,100531.22
2023-04-17T16:29:11.355Z,100535.47
2023-04-17T16:31:39.978Z,100533.63
2023-04-17T16:34:09.552Z,100531.22
2023-04-17T16:36:37.934Z,100538.94
2023-04-17T16:39:08.620Z,100529.09
2023-04-17T16:41:37.059Z,100532.59
2023-04-17T16:44:05.779Z,100530.50
2023-04-17T16:46:52.235Z,100538.47
2023-04-17T16:49:22.631Z,100533.97
2023-04-17T16:51:51.091Z,100522.19
2023-04-17T16:54:21.694Z,100530.97
2023-04-17T16:56:50.598Z,100529.81
2023-04-17T16:59:18.892Z,100535.72
2023-04-17T17:01:49.679Z,100541.84
2023-04-17T17:04:18.143Z,100535.94
2023-04-17T17:06:46.533Z,100540.25
2023-04-17T17:09:15.069Z,100540.44
2023-04-17T17:11:45.059Z,100529.47
2023-04-17T17:14:13.474Z,100526.81
2023-04-17T17:16:42.094Z,100548.69
2023-04-17T17:19:10.603Z,100544.72
2023-04-17T17:21:39.297Z,100551.09
2023-04-17T17:24:08.300Z,100545.78
2023-04-17T17:26:37.088Z,100543.09
2023-04-17T17:29:06.970Z,100554.00
2023-04-17T17:31:35.530Z,100558.25
2023-04-17T17:34:17.085Z,100554.78
2023-04-17T17:36:52.234Z,100552.94
2023-04-17T17:39:21.870Z,100548.09
2023-04-17T17:41:50.771Z,100544.38
2023-04-17T17:44:20.600Z,100552.94
2023-04-17T17:46:48.970Z,100561.97
2023-04-17T17:49:17.534Z,100549.13
2023-04-17T17:51:45.931Z,100565.66
2023-04-17T17:54:14.546Z,100562.97
2023-04-17T17:56:43.153Z,100556.75
2023-04-17T17:59:11.571Z,100554.91
2023-04-17T18:01:41.455Z,100556.75
2023-04-17T18:04:10.183Z,100560.47
2023-04-17T18:06:39.574Z,100570.50
2023-04-17T18:09:08.016Z,100559.06
2023-04-17T18:11:37.688Z,100557.66
2023-04-17T18:14:06.649Z,100560.34
2023-04-17T18:16:37.115Z,100563.22
2023-04-17T18:19:06.904Z,100568.56
2023-04-17T18:21:36.207Z,100564.25
2023-04-17T18:24:04.997Z,100572.22
2023-04-17T18:26:33.497Z,100553.06
2023-04-17T18:29:01.901Z,100571.66
2023-04-17T18:31:30.404Z,100572.72
2023-04-17T18:34:02.141Z,100571.88
2023-04-17T18:36:31.957Z,100574.78
2023-04-17T18:39:00.355Z,100578.25
2023-04-17T18:41:28.810Z,100577.31
2023-04-17T18:43:57.212Z,100583.91
2023-04-17T18:46:27.078Z,100584.81
2023-04-17T18:48:55.548Z,100588.53
2023-04-17T18:51:23.946Z,100586.13
2023-04-17T18:53:53.808Z,100586.56
2023-04-17T18:56:22.599Z,100587.63
2023-04-17T18:58:51.332Z,100579.84
2023-04-17T19:01:19.924Z,100594.19
2023-04-17T19:03:48.343Z,100580.91
2023-04-17T19:06:16.703Z,100585.84
2023-04-17T19:08:45.093Z,100598.91
2023-04-17T19:11:14.910Z,100601.56
2023-04-17T19:13:45.063Z,100587.72
2023-04-17T19:16:13.557Z,100593.25
2023-04-17T19:18:41.998Z,100582.84
2023-04-17T19:21:10.621Z,100583.53
2023-04-17T19:23:39.318Z,100582.25
2023-04-17T19:26:09.233Z,100578.44
2023-04-17T19:28:39.041Z,100589.31
2023-04-17T19:31:07.479Z,100585.38
2023-04-17T19:33:35.997Z,100577.63
2023-04-17T19:36:04.667Z,100581.09
2023-04-17T19:38:33.312Z,100580.75
2023-04-17T19:41:15.051Z,100578.31
2023-04-17T19:43:45.116Z,100574.47
2023-04-17T19:46:14.817Z,100572.25
2023-04-17T19:48:44.922Z,100580.00
2023-04-17T19:51:14.858Z,100575.97
2023-04-17T19:53:45.315Z,100591.09
2023-04-17T19:56:13.821Z,100585.44
2023-04-17T19:58:44.360Z,100576.41
2023-04-17T20:01:12.808Z,100580.56
2023-04-17T20:03:42.428Z,100579.53
2023-04-17T20:06:10.966Z,100584.03
2023-04-17T20:08:39.321Z,100578.38
2023-04-17T20:11:11.820Z,100581.81
2023-04-17T20:13:40.425Z,100583.06
2023-04-17T20:16:10.409Z,100578.44
2023-04-17T20:18:39.075Z,100582.59
2023-04-17T20:21:07.570Z,100571.53
2023-04-17T20:23:36.042Z,100577.50
2023-04-17T20:26:04.422Z,100565.72
2023-04-17T20:28:32.815Z,100578.78
2023-04-17T20:31:01.332Z,100575.53
2023-04-17T20:33:31.215Z,100575.16
2023-04-17T20:35:59.599Z,100587.88
2023-04-17T20:38:28.060Z,100576.44
2023-04-17T20:40:56.414Z,100570.78
2023-04-17T20:43:24.854Z,100557.69
2023-04-17T20:45:53.290Z,100584.50
2023-04-17T20:48:22.339Z,100578.59
2023-04-17T20:50:52.488Z,100567.41
2023-04-17T20:53:20.968Z,100575.38
2023-04-17T20:55:49.455Z,100572.56
2023-04-17T20:58:17.866Z,100565.63
2023-04-17T21:01:00.105Z,100576.25
2023-04-17T21:03:33.686Z,100573.81
2023-04-17T21:06:05.077Z,100562.03
2023-04-17T21:08:33.560Z,100590.22
2023-04-17T21:11:02.012Z,100564.47
2023-04-17T21:13:30.723Z,100571.84
2023-04-17T21:15:59.167Z,100580.47
2023-04-17T21:18:27.575Z,100582.31
2023-04-17T21:20:55.978Z,100569.50
2023-04-17T21:23:25.796Z,100564.63
2023-04-17T21:25:54.977Z,100570.16
2023-04-17T21:28:23.595Z,100571.19
2023-04-17T21:30:51.997Z,100557.69
2023-04-17T21:33:20.434Z,100574.66
2023-04-17T21:35:48.876Z,100564.25
2023-04-17T21:38:17.634Z,100564.25
2023-04-17T21:40:51.388Z,100570.81
2023-04-17T21:43:20.210Z,100565.50
2023-04-17T21:45:49.989Z,100568.03
2023-04-17T21:48:18.691Z,100569.22
2023-04-17T21:50:47.122Z,100567.00
2023-04-17T21:53:15.561Z,100567.81
2023-04-17T21:55:43.957Z,100560.50
2023-04-17T21:58:13.740Z,100568.47
2023-04-17T22:00:42.161Z,100569.28
2023-04-17T22:03:10.665Z,100549.91
2023-04-17T22:05:40.209Z,100565.00
2023-04-17T22:08:08.597Z,100565.25
2023-04-17T22:10:36.990Z,100558.31
2023-04-17T22:13:05.446Z,100571.19
2023-04-17T22:15:36.432Z,100548.59
2023-04-17T22:18:05.253Z,100553.06
2023-04-17T22:20:33.729Z,100567.16
2023-04-17T22:23:02.275Z,100555.16
2023-04-17T22:25:30.746Z,100554.34
2023-04-17T22:27:59.153Z,100540.09
2023-04-17T22:30:27.745Z,100551.53
2023-04-17T22:32:57.763Z,100557.28
2023-04-17T22:35:26.694Z,100546.66
2023-04-17T22:37:55.240Z,100549.94
2023-04-17T22:40:27.544Z,100544.28
2023-04-17T22:42:56.296Z,100549.44
2023-04-17T22:45:27.877Z,100546.00
2023-04-17T22:47:58.079Z,100548.47
2023-04-17T22:50:26.682Z,100549.75
2023-04-17T22:52:55.219Z,100549.75
2023-04-17T22:55:24.025Z,100561.22
2023-04-17T22:57:52.433Z,100555.56
2023-04-17T23:00:21.178Z,100550.25
2023-04-17T23:02:49.686Z,100558.88
2023-04-17T23:05:19.898Z,100554.56
2023-04-17T23:07:48.534Z,100554.66
2023-04-17T23:10:17.365Z,100548.53
2023-04-17T23:12:45.999Z,100556.28
2023-04-17T23:15:14.491Z,100549.94
2023-04-17T23:17:43.009Z,100553.25
2023-04-17T23:20:13.128Z,100527.78
2023-04-17T23:22:42.961Z,100543.88
2023-04-17T23:25:12.081Z,100550.44
2023-04-17T23:27:40.510Z,100547.22
2023-04-17T23:30:10.492Z,100553.31
2023-04-17T23:32:41.609Z,100543.94
2023-04-17T23:35:10.853Z,100549.25
2023-04-17T23:37:39.201Z,100544.19
2023-04-17T23:40:10.873Z,100549.69
2023-04-17T23:42:39.274Z,100538.28
2023-04-17T23:45:09.517Z,100539.53
2023-04-17T23:47:37.921Z,100546.69
2023-04-17T23:50:07.549Z,100545.03
2023-04-17T23:52:35.948Z,100543.66
2023-04-17T23:55:04.850Z,100517.59
2023-04-17T23:57:35.566Z,100532.06
